sensor_id;sensor_type;location;lat;lon;timestamp;pressure;altitude;pressure_sealevel;temperature;humidity
62111;BME280;48102;47.526;19.072;2023-02-14T04:41:16;102137.53;;;1.46;100.00
62111;BME280;48102;47.526;19.072;2023-02-14T04:44:19;102137.53;;;1.46;100.00
62111;BME280;48102;47.526;19.072;2023-02-14T04:47:22;102137.47;;;0.93;100.00
62111;BME280;48102;47.526;19.072;2023-02-14T04:50:25;102132.28;;;0.93;100.00
62111;BME280;48102;47.526;19.072;2023-02-14T04:53:28;102139.50;;;1.09;100.00
62111;BME280;48102;47.526;19.072;2023-02-14T04:56:31;102124.09;;;1.20;100.00
62111;BME280;48102;47.526;19.072;2023-02-14T04:59:34;102128.66;;;1.33;100.00
62111;BME280;48102;47.526;19.072;2023-02-14T05:02:37;102125.97;;;1.25;100.00
62111;BME280;48102;47.526;19.072;2023-02-14T05:05:40;102123.06;;;1.10;100.00
62111;BME280;48102;47.526;19.072;2023-02-14T05:08:43;102121.97;;;0.96;100.00
62111;BME280;48102;47.526;19.072;2023-02-14T05:11:46;102127.81;;;0.86;100.00
62111;BME280;48102;47.526;19.072;2023-02-14T05:14:49;102130.16;;;0.72;100.00
62111;BME280;48102;47.526;19.072;2023-02-14T05:17:52;102127.47;;;0.66;100.00
62111;BME280;48102;47.526;19.072;2023-02-14T05:20:55;102132.75;;;0.72;100.00
62111;BME280;48102;47.526;19.072;2023-02-14T05:23:59;102133.72;;;0.77;100.00
62111;BME280;48102;47.526;19.072;2023-02-14T05:27:02;102128.50;;;0.77;100.00
62111;BME280;48102;47.526;19.072;2023-02-14T05:30:06;102134.47;;;0.71;100.00
62111;BME280;48102;47.526;19.072;2023-02-14T05:33:09;102137.88;;;0.69;100.00
62111;BME280;48102;47.526;19.072;2023-02-14T05:36:12;102137.16;;;0.76;100.00
62111;BME280;48102;47.526;19.072;2023-02-14T05:39:15;102131.03;;;0.72;100.00
62111;BME280;48102;47.526;19.072;2023-02-14T05:42:18;102131.00;;;0.69;100.00
62111;BME280;48102;47.526;19.072;2023-02-14T05:45:21;102127.53;;;0.70;100.00
62111;BME280;48102;47.526;19.072;2023-02-14T05:48:24;102132.69;;;0.69;100.00
62111;BME280;48102;47.526;19.072;2023-02-14T05:51:27;102131.00;;;0.69;100.00
62111;BME280;48102;47.526;19.072;2023-02-14T05:54:30;102136.13;;;0.68;100.00
62111;BME280;48102;47.526;19.072;2023-02-14T05:57:34;102146.25;;;0.56;100.00
62111;BME280;48102;47.526;19.072;2023-02-14T06:00:36;102144.41;;;0.50;100.00
62111;BME280;48102;47.526;19.072;2023-02-14T06:03:42;102140.88;;;0.45;100.00
62111;BME280;48102;47.526;19.072;2023-02-14T06:06:47;102141.72;;;0.45;100.00
62111;BME280;48102;47.526;19.072;2023-02-14T06:09:50;102149.59;;;0.48;100.00
62111;BME280;48102;47.526;19.072;2023-02-14T06:12:53;102154.81;;;0.52;100.00
62111;BME280;48102;47.526;19.072;2023-02-14T06:15:56;102155.06;;;0.62;100.00
62111;BME280;48102;47.526;19.072;2023-02-14T06:18:59;102151.84;;;0.74;100.00
62111;BME280;48102;47.526;19.072;2023-02-14T06:22:02;102156.31;;;0.83;100.00
62111;BME280;48102;47.526;19.072;2023-02-14T06:25:05;102156.53;;;0.95;100.00
62111;BME280;48102;47.526;19.072;2023-02-14T06:28:08;102166.09;;;0.97;100.00
62111;BME280;48102;47.526;19.072;2023-02-14T06:31:15;102173.09;;;1.00;100.00
62111;BME280;48102;47.526;19.072;2023-02-14T06:34:19;102179.31;;;1.10;100.00
62111;BME280;48102;47.526;19.072;2023-02-14T06:37:22;102180.44;;;1.24;100.00
62111;BME280;48102;47.526;19.072;2023-02-14T06:40:24;102187.66;;;1.40;100.00
62111;BME280;48102;47.526;19.072;2023-02-14T06:43:27;102199.13;;;1.52;100.00
62111;BME280;48102;47.526;19.072;2023-02-14T06:46:30;102206.31;;;1.68;100.00
62111;BME280;48102;47.526;19.072;2023-02-14T06:49:33;102201.38;;;1.83;100.00
62111;BME280;48102;47.526;19.072;2023-02-14T06:52:36;102205.94;;;1.98;100.00
62111;BME280;48102;47.526;19.072;2023-02-14T06:55:39;102206.22;;;2.16;100.00
62111;BME280;48102;47.526;19.072;2023-02-14T06:58:45;102208.22;;;2.36;100.00
62111;BME280;48102;47.526;19.072;2023-02-14T07:01:48;102203.25;;;2.51;100.00
62111;BME280;48102;47.526;19.072;2023-02-14T07:04:51;102203.37;;;2.63;100.00
62111;BME280;48102;47.526;19.072;2023-02-14T07:07:53;102213.13;;;2.80;100.00
62111;BME280;48102;47.526;19.072;2023-02-14T07:10:56;102213.31;;;2.95;100.00
62111;BME280;48102;47.526;19.072;2023-02-14T07:14:00;102209.16;;;3.11;100.00
62111;BME280;48102;47.526;19.072;2023-02-14T07:17:03;102217.97;;;3.23;100.00
62111;BME280;48102;47.526;19.072;2023-02-14T07:20:07;102216.41;;;3.41;100.00
62111;BME280;48102;47.526;19.072;2023-02-14T07:23:11;102212.19;;;3.50;100.00
62111;BME280;48102;47.526;19.072;2023-02-14T07:26:14;102220.19;;;3.72;100.00
62111;BME280;48102;47.526;19.072;2023-02-14T07:29:23;102222.91;;;3.86;100.00
62111;BME280;48102;47.526;19.072;2023-02-14T07:32:26;102215.19;;;3.99;100.00
62111;BME280;48102;47.526;19.072;2023-02-14T07:35:29;102225.75;;;4.18;100.00
62111;BME280;48102;47.526;19.072;2023-02-14T07:38:32;102225.81;;;4.30;100.00
62111;BME280;48102;47.526;19.072;2023-02-14T07:41:38;102229.38;;;4.37;100.00
62111;BME280;48102;47.526;19.072;2023-02-14T07:44:44;102221.62;;;4.53;100.00
62111;BME280;48102;47.526;19.072;2023-02-14T07:47:49;102226.91;;;4.64;100.00
62111;BME280;48102;47.526;19.072;2023-02-14T07:50:53;102230.47;;;4.88;100.00
62111;BME280;48102;47.526;19.072;2023-02-14T07:54:00;102235.84;;;5.35;100.00
62111;BME280;48102;47.526;19.072;2023-02-14T07:57:03;102238.50;;;5.73;100.00
62111;BME280;48102;47.526;19.072;2023-02-14T08:00:06;102232.41;;;5.77;100.00
62111;BME280;48102;47.526;19.072;2023-02-14T08:03:13;102241.13;;;5.69;100.00
62111;BME280;48102;47.526;19.072;2023-02-14T08:06:18;102238.50;;;5.73;100.00
62111;BME280;48102;47.526;19.072;2023-02-14T08:09:21;102239.41;;;5.80;100.00
62111;BME280;48102;47.526;19.072;2023-02-14T08:12:27;102240.28;;;5.90;100.00
62111;BME280;48102;47.526;19.072;2023-02-14T08:15:48;102237.66;;;6.16;100.00
62111;BME280;48102;47.526;19.072;2023-02-14T08:19:07;102235.84;;;6.51;100.00
62111;BME280;48102;47.526;19.072;2023-02-14T08:22:10;102225.28;;;6.84;100.00
62111;BME280;48102;47.526;19.072;2023-02-14T08:25:13;102231.44;;;6.69;100.00
62111;BME280;48102;47.526;19.072;2023-02-14T08:28:16;102237.63;;;6.49;100.00
62111;BME280;48102;47.526;19.072;2023-02-14T08:31:25;102241.13;;;6.38;100.00
62111;BME280;48102;47.526;19.072;2023-02-14T08:34:37;102239.41;;;6.24;100.00
62111;BME280;48102;47.526;19.072;2023-02-14T08:37:40;102242.00;;;6.21;100.00
62111;BME280;48102;47.526;19.072;2023-02-14T08:40:42;102238.53;;;6.25;100.00
62111;BME280;48102;47.526;19.072;2023-02-14T08:43:45;102240.25;;;6.42;100.00
62111;BME280;48102;47.526;19.072;2023-02-14T08:46:48;102238.50;;;6.48;99.44
62111;BME280;48102;47.526;19.072;2023-02-14T08:49:51;102240.19;;;6.60;96.45
62111;BME280;48102;47.526;19.072;2023-02-14T08:52:54;102242.81;;;6.62;96.35
62111;BME280;48102;47.526;19.072;2023-02-14T08:56:17;102238.41;;;6.73;97.48
62111;BME280;48102;47.526;19.072;2023-02-14T08:59:21;102237.44;;;6.98;94.06
62111;BME280;48102;47.526;19.072;2023-02-14T09:02:24;102245.06;;;7.41;91.64
62111;BME280;48102;47.526;19.072;2023-02-14T09:05:27;102239.59;;;7.72;88.82
62111;BME280;48102;47.526;19.072;2023-02-14T09:08:30;102242.28;;;7.66;87.89
62111;BME280;48102;47.526;19.072;2023-02-14T09:11:33;102239.75;;;7.53;88.98
62111;BME280;48102;47.526;19.072;2023-02-14T09:14:40;102231.91;;;7.49;89.23
62111;BME280;48102;47.526;19.072;2023-02-14T09:17:46;102235.47;;;7.37;89.42
62111;BME280;48102;47.526;19.072;2023-02-14T09:20:49;102231.97;;;7.43;90.41
62111;BME280;48102;47.526;19.072;2023-02-14T09:23:53;102240.75;;;7.36;89.68
62111;BME280;48102;47.526;19.072;2023-02-14T09:26:57;102239.91;;;7.24;89.15
62111;BME280;48102;47.526;19.072;2023-02-14T09:30:00;102236.34;;;7.41;91.56
62111;BME280;48102;47.526;19.072;2023-02-14T09:33:03;102242.34;;;7.55;89.47
62111;BME280;48102;47.526;19.072;2023-02-14T09:36:06;102244.84;;;7.75;87.71
62111;BME280;48102;47.526;19.072;2023-02-14T09:39:13;102240.31;;;7.92;85.46
62111;BME280;48102;47.526;19.072;2023-02-14T09:42:37;102243.78;;;7.99;84.77
62111;BME280;48102;47.526;19.072;2023-02-14T09:45:52;102254.34;;;7.90;85.79
62111;BME280;48102;47.526;19.072;2023-02-14T09:48:56;102252.50;;;8.01;85.85
62111;BME280;48102;47.526;19.072;2023-02-14T09:52:02;102247.16;;;8.12;84.02
62111;BME280;48102;47.526;19.072;2023-02-14T09:55:12;102241.88;;;8.15;82.58
62111;BME280;48102;47.526;19.072;2023-02-14T09:58:32;102253.25;;;8.15;81.04
62111;BME280;48102;47.526;19.072;2023-02-14T10:01:42;102245.47;;;8.08;85.03
62111;BME280;48102;47.526;19.072;2023-02-14T10:08:31;102242.12;;;7.86;85.67
62111;BME280;48102;47.526;19.072;2023-02-14T10:11:42;102246.34;;;8.05;84.87
62111;BME280;48102;47.526;19.072;2023-02-14T10:14:47;102246.22;;;8.19;82.29
62111;BME280;48102;47.526;19.072;2023-02-14T10:17:59;102245.22;;;8.32;81.67
62111;BME280;48102;47.526;19.072;2023-02-14T10:21:05;102239.03;;;8.36;81.18
62111;BME280;48102;47.526;19.072;2023-02-14T10:24:34;102236.41;;;8.42;79.97
62111;BME280;48102;47.526;19.072;2023-02-14T10:27:40;102239.94;;;8.38;79.75
62111;BME280;48102;47.526;19.072;2023-02-14T10:51:05;102215.09;;;8.68;78.52
62111;BME280;48102;47.526;19.072;2023-02-14T10:54:19;102212.41;;;8.71;76.67
62111;BME280;48102;47.526;19.072;2023-02-14T10:57:31;102210.63;;;8.76;75.74
62111;BME280;48102;47.526;19.072;2023-02-14T11:00:45;102202.56;;;8.87;74.48
62111;BME280;48102;47.526;19.072;2023-02-14T11:03:59;102197.41;;;8.79;73.52
62111;BME280;48102;47.526;19.072;2023-02-14T11:07:17;102199.31;;;8.67;73.52
62111;BME280;48102;47.526;19.072;2023-02-14T11:10:25;102199.37;;;8.64;76.38
62111;BME280;48102;47.526;19.072;2023-02-14T11:13:37;102191.56;;;8.58;75.36
62111;BME280;48102;47.526;19.072;2023-02-14T11:16:40;102199.53;;;8.51;75.46
62111;BME280;48102;47.526;19.072;2023-02-14T11:19:56;102203.13;;;8.41;75.85
62111;BME280;48102;47.526;19.072;2023-02-14T11:22:59;102203.13;;;8.41;76.60
62111;BME280;48102;47.526;19.072;2023-02-14T11:26:06;102196.69;;;8.67;74.70
62111;BME280;48102;47.526;19.072;2023-02-14T11:29:14;102197.59;;;8.66;73.97
62111;BME280;48102;47.526;19.072;2023-02-14T11:32:23;102189.47;;;8.84;74.77
62111;BME280;48102;47.526;19.072;2023-02-14T11:35:27;102197.31;;;8.87;70.45
62111;BME280;48102;47.526;19.072;2023-02-14T11:38:37;102191.91;;;8.99;72.01
62111;BME280;48102;47.526;19.072;2023-02-14T11:41:50;102194.28;;;9.18;69.70
62111;BME280;48102;47.526;19.072;2023-02-14T11:44:55;102188.84;;;9.30;68.47
62111;BME280;48102;47.526;19.072;2023-02-14T11:51:43;102185.34;;;9.28;68.50
62111;BME280;48102;47.526;19.072;2023-02-14T11:54:47;102176.66;;;9.23;67.98
62111;BME280;48102;47.526;19.072;2023-02-14T11:57:53;102174.78;;;9.31;68.43
62111;BME280;48102;47.526;19.072;2023-02-14T12:00:58;102185.16;;;9.42;67.61
62111;BME280;48102;47.526;19.072;2023-02-14T12:04:12;102193.16;;;9.34;67.67
62111;BME280;48102;47.526;19.072;2023-02-14T12:07:19;102180.66;;;9.48;65.66
62111;BME280;48102;47.526;19.072;2023-02-14T12:10:32;102175.13;;;9.65;66.19
62111;BME280;48102;47.526;19.072;2023-02-14T12:13:36;102182.97;;;9.68;64.73
62111;BME280;48102;47.526;19.072;2023-02-14T12:16:48;102177.78;;;9.64;65.23
62111;BME280;48102;47.526;19.072;2023-02-14T12:19:59;102176.78;;;9.71;64.95
62111;BME280;48102;47.526;19.072;2023-02-14T12:23:19;102167.41;;;9.54;62.79
62111;BME280;48102;47.526;19.072;2023-02-14T12:26:32;102165.44;;;9.66;64.52
62111;BME280;48102;47.526;19.072;2023-02-14T12:32:58;102162.34;;;9.42;63.52
62111;BME280;48102;47.526;19.072;2023-02-14T12:36:08;102159.37;;;9.62;62.60
62111;BME280;48102;47.526;19.072;2023-02-14T12:39:30;102154.72;;;9.78;61.61
62111;BME280;48102;47.526;19.072;2023-02-14T13:09:34;102126.34;;;10.40;56.34
62111;BME280;48102;47.526;19.072;2023-02-14T13:12:53;102134.53;;;10.28;58.96
62111;BME280;48102;47.526;19.072;2023-02-14T13:22:47;102120.25;;;10.80;55.19
62111;BME280;48102;47.526;19.072;2023-02-14T13:26:05;102118.47;;;10.79;55.15
62111;BME280;48102;47.526;19.072;2023-02-14T13:29:13;102116.59;;;10.86;56.07
62111;BME280;48102;47.526;19.072;2023-02-14T13:32:22;102126.28;;;10.85;54.78
62111;BME280;48102;47.526;19.072;2023-02-14T13:35:29;102115.28;;;11.03;55.64
62111;BME280;48102;47.526;19.072;2023-02-14T13:38:37;102120.84;;;11.64;53.14
62111;BME280;48102;47.526;19.072;2023-02-14T13:41:42;102114.75;;;11.96;52.46
62111;BME280;48102;47.526;19.072;2023-02-14T13:44:48;102112.59;;;12.99;50.26
62111;BME280;48102;47.526;19.072;2023-02-14T13:51:10;102106.78;;;15.12;43.63
62111;BME280;48102;47.526;19.072;2023-02-14T13:54:42;102105.59;;;16.80;39.69
62111;BME280;48102;47.526;19.072;2023-02-14T13:58:00;102100.97;;;19.35;34.96
62111;BME280;48102;47.526;19.072;2023-02-14T14:07:33;102103.50;;;27.33;24.58
62111;BME280;48102;47.526;19.072;2023-02-14T14:10:45;102091.78;;;28.56;23.04
62111;BME280;48102;47.526;19.072;2023-02-14T14:13:56;102103.41;;;28.66;23.35
62111;BME280;48102;47.526;19.072;2023-02-14T14:16:59;102105.84;;;29.32;22.12
62111;BME280;48102;47.526;19.072;2023-02-14T14:23:32;102110.63;;;27.73;22.92
62111;BME280;48102;47.526;19.072;2023-02-14T14:26:47;102104.91;;;26.58;24.01
62111;BME280;48102;47.526;19.072;2023-02-14T14:30:05;102101.88;;;27.79;22.57
62111;BME280;48102;47.526;19.072;2023-02-14T14:36:22;102094.00;;;28.88;21.46
62111;BME280;48102;47.526;19.072;2023-02-14T14:39:30;102095.91;;;29.41;21.71
62111;BME280;48102;47.526;19.072;2023-02-14T14:42:38;102093.81;;;29.17;21.51
62111;BME280;48102;47.526;19.072;2023-02-14T14:45:44;102094.91;;;29.24;21.55
62111;BME280;48102;47.526;19.072;2023-02-14T14:48:50;102088.97;;;29.46;21.24
62111;BME280;48102;47.526;19.072;2023-02-14T14:51:56;102078.84;;;26.47;22.94
62111;BME280;48102;47.526;19.072;2023-02-14T14:54:59;102083.34;;;23.90;26.41
62111;BME280;48102;47.526;19.072;2023-02-14T14:58:06;102070.94;;;23.06;27.64
62111;BME280;48102;47.526;19.072;2023-02-14T15:01:47;102078.38;;;20.98;29.46
62111;BME280;48102;47.526;19.072;2023-02-14T15:04:48;102078.56;;;18.92;32.88
62111;BME280;48102;47.526;19.072;2023-02-14T15:07:51;102077.31;;;17.14;35.63
62111;BME280;48102;47.526;19.072;2023-02-14T15:14:45;102087.47;;;14.86;39.89
62111;BME280;48102;47.526;19.072;2023-02-14T15:17:53;102084.09;;;14.11;40.90
62111;BME280;48102;47.526;19.072;2023-02-14T15:20:58;102078.09;;;13.55;42.41
62111;BME280;48102;47.526;19.072;2023-02-14T15:24:01;102084.53;;;12.94;43.42
62111;BME280;48102;47.526;19.072;2023-02-14T15:27:15;102084.09;;;12.51;44.96
62111;BME280;48102;47.526;19.072;2023-02-14T15:30:23;102077.66;;;12.01;46.20
62111;BME280;48102;47.526;19.072;2023-02-14T15:33:29;102083.06;;;11.62;46.77
62111;BME280;48102;47.526;19.072;2023-02-14T15:36:33;102082.13;;;11.29;47.16
62111;BME280;48102;47.526;19.072;2023-02-14T15:39:47;102084.34;;;10.73;49.03
62111;BME280;48102;47.526;19.072;2023-02-14T15:42:51;102078.41;;;10.21;51.30
62111;BME280;48102;47.526;19.072;2023-02-14T15:46:25;102073.19;;;9.73;53.03
62111;BME280;48102;47.526;19.072;2023-02-14T15:49:35;102078.47;;;9.22;56.05
62111;BME280;48102;47.526;19.072;2023-02-14T15:52:39;102091.50;;;8.73;58.65
62111;BME280;48102;47.526;19.072;2023-02-14T15:55:42;102083.19;;;8.36;61.21
62111;BME280;48102;47.526;19.072;2023-02-14T15:58:47;102087.19;;;7.93;67.08
62111;BME280;48102;47.526;19.072;2023-02-14T16:01:57;102088.34;;;7.66;70.61
62111;BME280;48102;47.526;19.072;2023-02-14T16:05:22;102092.13;;;7.36;71.79
62111;BME280;48102;47.526;19.072;2023-02-14T16:08:28;102102.84;;;7.09;73.91
62111;BME280;48102;47.526;19.072;2023-02-14T16:11:36;102109.97;;;6.87;76.75
62111;BME280;48102;47.526;19.072;2023-02-14T16:14:41;102106.59;;;6.63;79.13
62111;BME280;48102;47.526;19.072;2023-02-14T16:17:47;102108.41;;;6.49;82.77
62111;BME280;48102;47.526;19.072;2023-02-14T16:20:50;102105.88;;;6.24;86.20
62111;BME280;48102;47.526;19.072;2023-02-14T16:27:09;102119.88;;;6.22;85.29
62111;BME280;48102;47.526;19.072;2023-02-14T16:30:18;102116.44;;;5.95;86.27
62111;BME280;48102;47.526;19.072;2023-02-14T16:33:26;102120.78;;;5.90;88.09
62111;BME280;48102;47.526;19.072;2023-02-14T16:36:32;102119.06;;;5.69;89.99
62111;BME280;48102;47.526;19.072;2023-02-14T16:39:37;102127.81;;;5.47;91.56
62111;BME280;48102;47.526;19.072;2023-02-14T16:42:41;102128.66;;;5.34;93.67
62111;BME280;48102;47.526;19.072;2023-02-14T16:45:45;102121.69;;;5.20;94.31
62111;BME280;48102;47.526;19.072;2023-02-14T16:48:48;102128.66;;;5.06;95.64
